createdAt,value
2018-07-20T17:08:47.024Z,3.90
2018-07-20T17:11:14.498Z,3.90
2018-07-20T17:13:42.047Z,4.37
2018-07-20T17:16:09.529Z,4.40
2018-07-20T17:18:36.951Z,4.30
2018-07-20T17:21:04.563Z,3.77
2018-07-20T17:23:31.977Z,3.90
2018-07-20T17:25:59.473Z,4.30
2018-07-20T17:28:26.909Z,4.10
2018-07-20T17:30:54.730Z,4.43
2018-07-20T17:33:22.838Z,4.30
2018-07-20T17:35:50.433Z,3.70
2018-07-20T17:38:18.344Z,3.87
2018-07-20T17:40:46.059Z,3.27
2018-07-20T17:43:13.839Z,4.10
2018-07-20T17:45:41.543Z,4.10
2018-07-20T17:48:09.257Z,4.17
2018-07-20T17:50:36.860Z,3.67
2018-07-20T17:53:05.440Z,3.80
2018-07-20T17:55:35.233Z,3.97
2018-07-20T17:58:03.036Z,4.00
2018-07-20T18:00:30.989Z,4.27
2018-07-20T18:02:58.756Z,3.53
2018-07-20T18:05:26.724Z,4.03
2018-07-20T18:07:55.123Z,3.87
2018-07-20T18:10:23.388Z,3.73
2018-07-20T18:12:51.672Z,4.00
2018-07-20T18:15:20.367Z,4.40
2018-07-20T18:17:48.463Z,4.70
2018-07-20T18:20:16.512Z,4.97
2018-07-20T18:22:44.814Z,4.97
2018-07-20T18:25:13.857Z,5.10
2018-07-20T18:27:41.822Z,4.90
2018-07-20T18:30:09.972Z,4.60
2018-07-20T18:32:38.267Z,5.77
2018-07-20T18:35:06.184Z,6.57
2018-07-20T18:37:34.127Z,8.93
2018-07-20T18:40:02.159Z,7.83
2018-07-20T18:42:30.129Z,7.80
2018-07-20T18:45:05.187Z,6.30
2018-07-20T18:47:33.058Z,15.40
2018-07-20T18:50:01.130Z,11.50
2018-07-20T18:52:29.924Z,8.03
2018-07-20T18:54:57.799Z,7.00
2018-07-20T18:57:25.896Z,5.20
2018-07-20T18:59:54.440Z,5.30
2018-07-20T19:02:22.612Z,5.10
2018-07-20T19:04:51.219Z,4.93
2018-07-20T19:07:19.457Z,4.90
2018-07-20T19:09:47.394Z,4.90
2018-07-20T19:12:15.260Z,7.00
2018-07-20T19:14:43.186Z,10.30
2018-07-20T19:17:11.276Z,8.23
2018-07-20T19:19:39.136Z,6.30
2018-07-20T19:22:07.254Z,5.77
2018-07-20T19:24:35.158Z,11.17
2018-07-20T19:27:03.143Z,6.27
2018-07-20T19:29:30.870Z,5.13
2018-07-20T19:31:59.187Z,4.70
2018-07-20T19:34:27.173Z,4.40
2018-07-20T19:36:55.248Z,4.50
2018-07-20T19:39:23.282Z,4.77
2018-07-20T19:41:52.066Z,4.90
2018-07-20T19:44:21.345Z,4.90
2018-07-20T19:46:50.010Z,4.70
2018-07-20T19:49:18.053Z,5.10
2018-07-20T19:51:46.020Z,5.17
2018-07-20T19:54:13.965Z,5.30
2018-07-20T19:56:41.783Z,4.90
2018-07-20T19:59:09.671Z,4.77
2018-07-20T20:01:37.534Z,5.33
2018-07-20T20:04:05.739Z,5.27
2018-07-20T20:06:33.599Z,5.53
2018-07-20T20:09:01.516Z,5.37
2018-07-20T20:11:29.322Z,5.43
2018-07-20T20:13:57.234Z,5.73
2018-07-20T20:16:25.251Z,5.30
2018-07-20T20:18:54.185Z,4.77
2018-07-20T20:21:22.955Z,4.70
2018-07-20T20:23:51.301Z,4.90
2018-07-20T20:26:20.999Z,5.07
2018-07-20T20:28:49.109Z,4.83
2018-07-20T20:31:16.933Z,5.67
2018-07-20T20:33:44.916Z,5.23
2018-07-20T20:36:12.849Z,5.30
2018-07-20T20:38:40.785Z,5.93
2018-07-20T20:41:08.753Z,5.43
2018-07-20T20:43:36.759Z,5.03
2018-07-20T20:46:04.692Z,5.43
2018-07-20T20:48:32.620Z,5.03
2018-07-20T20:51:00.532Z,5.27
2018-07-20T20:53:28.291Z,4.93
2018-07-20T20:55:56.261Z,6.17
2018-07-20T20:58:25.104Z,4.43
2018-07-20T21:00:53.282Z,4.67
2018-07-20T21:03:22.984Z,5.57
2018-07-20T21:05:52.232Z,5.00
2018-07-20T21:08:21.349Z,5.07
2018-07-20T21:10:49.310Z,6.63
2018-07-20T21:13:17.237Z,4.70
2018-07-20T21:15:45.122Z,4.53
2018-07-20T21:18:13.162Z,5.23
2018-07-20T21:20:41.043Z,5.00
2018-07-20T21:23:08.960Z,4.60
2018-07-20T21:25:36.940Z,7.63
2018-07-20T21:28:05.047Z,5.73
2018-07-20T21:30:33.013Z,4.80
2018-07-20T21:33:00.837Z,5.50
2018-07-20T21:35:28.664Z,5.17
2018-07-20T21:37:56.652Z,5.90
2018-07-20T21:40:24.684Z,6.90
2018-07-20T21:42:52.801Z,7.63
2018-07-20T21:45:21.684Z,7.90
2018-07-20T21:47:49.778Z,7.27
2018-07-20T21:50:17.661Z,6.30
2018-07-20T21:52:45.683Z,6.60
2018-07-20T21:55:13.545Z,5.90
2018-07-20T21:57:45.850Z,6.13
2018-07-20T22:00:15.717Z,6.43
2018-07-20T22:02:43.472Z,6.30
2018-07-20T22:05:11.397Z,6.43
2018-07-20T22:07:39.329Z,6.30
2018-07-20T22:10:07.982Z,5.90
2018-07-20T22:12:35.920Z,8.27
2018-07-20T22:15:26.647Z,9.17
2018-07-20T22:17:54.493Z,8.27
2018-07-20T22:20:23.645Z,7.37
2018-07-20T22:22:51.813Z,7.03
2018-07-20T22:25:19.751Z,6.43
2018-07-20T22:27:48.296Z,6.10
2018-07-20T22:30:16.133Z,6.50
2018-07-20T22:32:43.970Z,6.27
2018-07-20T22:35:11.859Z,7.63
2018-07-20T22:37:39.820Z,6.60
2018-07-20T22:40:07.643Z,8.10
2018-07-20T22:42:35.731Z,6.50
2018-07-20T22:45:03.609Z,5.97
2018-07-20T22:47:31.417Z,6.60
2018-07-20T22:49:59.298Z,5.87
2018-07-20T22:52:27.271Z,5.87
2018-07-20T22:54:55.333Z,6.40
2018-07-20T22:57:23.541Z,7.90
2018-07-20T22:59:51.700Z,6.50
2018-07-20T23:02:19.501Z,6.30
2018-07-20T23:04:59.374Z,6.40
2018-07-20T23:07:27.376Z,6.07
2018-07-20T23:09:55.477Z,6.33
2018-07-20T23:12:23.401Z,6.57
2018-07-20T23:14:54.838Z,8.70
2018-07-20T23:17:23.006Z,8.17
2018-07-20T23:19:52.069Z,5.70
2018-07-20T23:22:20.489Z,6.13
2018-07-20T23:24:48.505Z,6.50
2018-07-20T23:27:16.370Z,5.47
2018-07-20T23:29:44.237Z,5.33
2018-07-20T23:32:12.085Z,6.53
2018-07-20T23:34:39.924Z,5.80
2018-07-20T23:37:07.738Z,8.03
2018-07-20T23:39:35.575Z,6.97
2018-07-20T23:42:05.884Z,5.60
2018-07-20T23:44:33.761Z,6.20
2018-07-20T23:47:01.777Z,6.57
2018-07-20T23:49:29.651Z,5.93
2018-07-20T23:51:57.534Z,6.27
2018-07-20T23:54:25.518Z,5.80
2018-07-20T23:56:53.379Z,5.90
2018-07-20T23:59:21.561Z,5.77
